Time;durP1;ratioP1;P1;durP2;ratioP2;P2;SDS_P1;SDS_P2;PMS_P1;PMS_P2;Temp;Humidity;BMP_temperature;BMP_pressure;BME280_temperature;BME280_humidity;BME280_pressure;Samples;Min_cycle;Max_cycle;Signal;HPM_P1;HPM_P2
2022/08/19 00:00:28;;;;;;;6.90;5.15;;;18.80;99.90;;;;;;4963057;28;20066;-45
2022/08/19 00:02:54;;;;;;;7.03;5.30;;;18.70;99.90;;;;;;4963703;28;20070;-47
2022/08/19 00:05:21;;;;;;;7.55;5.20;;;18.70;99.90;;;;;;4962272;28;20115;-47
2022/08/19 00:07:48;;;;;;;7.97;4.97;;;18.70;99.90;;;;;;4947883;28;20043;-45
2022/08/19 00:10:15;;;;;;;7.00;5.63;;;18.70;99.90;;;;;;4963604;28;20554;-46
2022/08/19 00:12:41;;;;;;;9.18;5.43;;;18.70;99.90;;;;;;4962955;28;20474;-48
2022/08/19 00:15:13;;;;;;;7.43;5.43;;;18.60;99.90;;;;;;4963076;28;20046;-46
2022/08/19 00:17:41;;;;;;;8.02;6.15;;;18.60;99.90;;;;;;4946967;28;20491;-47
2022/08/19 00:20:10;;;;;;;8.98;5.70;;;18.70;99.90;;;;;;4963188;28;20027;-46
2022/08/19 00:22:37;;;;;;;9.23;6.13;;;18.70;99.90;;;;;;4961135;28;20035;-46
2022/08/19 00:25:03;;;;;;;7.78;6.03;;;18.60;99.90;;;;;;4946289;28;20051;-46
2022/08/19 00:27:29;;;;;;;7.95;6.50;;;18.60;99.90;;;;;;4962986;28;20043;-48
2022/08/19 00:29:55;;;;;;;7.80;6.47;;;18.60;99.90;;;;;;4962654;28;20050;-47
2022/08/19 00:32:20;;;;;;;8.93;6.28;;;18.60;99.90;;;;;;4945505;28;20044;-51
2022/08/19 00:34:46;;;;;;;8.75;7.20;;;18.50;99.90;;;;;;4962091;28;20038;-45
2022/08/19 00:37:12;;;;;;;8.88;6.72;;;18.60;99.90;;;;;;4962887;28;20034;-45
2022/08/19 00:39:38;;;;;;;10.05;6.90;;;18.50;99.90;;;;;;4962141;28;20045;-46
2022/08/19 00:42:06;;;;;;;9.07;6.80;;;18.40;99.90;;;;;;4963850;28;20031;-47
2022/08/19 00:44:32;;;;;;;9.20;6.43;;;18.30;99.90;;;;;;4963155;28;20041;-50
2022/08/19 00:46:58;;;;;;;8.85;6.82;;;18.30;99.90;;;;;;4962990;28;20395;-45
2022/08/19 00:49:50;;;;;;;7.57;6.40;;;18.30;99.90;;;;;;4961786;28;20039;-47
2022/08/19 00:52:29;;;;;;;8.52;6.72;;;18.30;99.90;;;;;;4946312;28;20656;-47
2022/08/19 00:54:56;;;;;;;7.72;6.70;;;18.30;99.90;;;;;;4964163;28;20053;-48
2022/08/19 00:57:37;;;;;;;8.10;6.45;;;18.20;99.90;;;;;;4962427;28;20035;-46
2022/08/19 01:00:10;;;;;;;9.10;6.90;;;18.20;99.90;;;;;;4962232;28;20109;-47
2022/08/19 01:02:35;;;;;;;9.60;7.10;;;18.20;99.90;;;;;;4960992;28;20082;-46
2022/08/19 01:05:04;;;;;;;8.88;7.13;;;18.10;99.90;;;;;;4946257;28;20043;-47
2022/08/19 01:07:29;;;;;;;10.07;7.50;;;18.10;99.90;;;;;;4961570;28;20035;-46
2022/08/19 01:09:56;;;;;;;8.63;7.45;;;18.20;99.90;;;;;;4962392;28;20031;-49
2022/08/19 01:12:22;;;;;;;9.55;6.80;;;18.20;99.90;;;;;;4961199;28;20580;-47
2022/08/19 01:14:49;;;;;;;9.25;7.70;;;18.10;99.90;;;;;;4961277;28;20873;-48
2022/08/19 01:17:15;;;;;;;11.13;8.10;;;18.10;99.90;;;;;;4962446;28;20041;-44
2022/08/19 01:19:42;;;;;;;8.75;7.85;;;18.00;99.90;;;;;;4962093;28;20034;-48
2022/08/19 01:22:23;;;;;;;10.05;8.68;;;18.00;99.90;;;;;;4963202;28;20039;-47
2022/08/19 01:24:50;;;;;;;9.65;7.38;;;18.00;99.90;;;;;;4961865;28;20062;-46
2022/08/19 01:27:16;;;;;;;11.35;8.65;;;17.90;99.90;;;;;;4961978;28;20054;-46
2022/08/19 01:29:44;;;;;;;9.27;8.18;;;17.90;99.90;;;;;;4960876;28;20047;-47
2022/08/19 01:32:13;;;;;;;9.98;8.88;;;17.90;99.90;;;;;;4962461;28;20077;-48
2022/08/19 01:34:39;;;;;;;10.63;8.80;;;17.80;99.90;;;;;;4961639;28;20047;-46
2022/08/19 01:37:10;;;;;;;10.88;9.00;;;17.90;99.90;;;;;;4962115;28;20402;-44
2022/08/19 01:39:38;;;;;;;9.57;8.50;;;17.80;99.90;;;;;;4962572;28;20486;-45
2022/08/19 01:42:04;;;;;;;11.52;8.88;;;17.80;99.90;;;;;;4962210;28;20434;-49
2022/08/19 01:44:30;;;;;;;10.02;8.52;;;17.70;99.90;;;;;;4945547;28;20479;-45
2022/08/19 01:46:56;;;;;;;9.73;8.73;;;17.70;99.90;;;;;;4961506;28;20097;-48
2022/08/19 01:49:25;;;;;;;10.50;9.02;;;17.70;99.90;;;;;;4962151;28;20818;-46
2022/08/19 01:51:51;;;;;;;11.25;9.18;;;17.60;99.90;;;;;;4961422;28;20053;-48
2022/08/19 01:54:18;;;;;;;11.95;9.75;;;17.60;99.90;;;;;;4962347;28;20043;-46
2022/08/19 01:56:44;;;;;;;13.30;10.05;;;17.70;99.90;;;;;;4961571;28;20043;-47
2022/08/19 01:59:17;;;;;;;13.15;10.73;;;17.50;99.90;;;;;;4961203;28;20050;-45
2022/08/19 02:01:43;;;;;;;11.45;10.18;;;17.60;99.90;;;;;;4961246;28;20054;-49
2022/08/19 02:04:09;;;;;;;10.27;9.20;;;17.50;99.90;;;;;;4961482;28;20038;-48
2022/08/19 02:06:35;;;;;;;11.02;9.93;;;17.60;99.90;;;;;;4962551;28;20118;-45
2022/08/19 02:09:00;;;;;;;13.27;10.55;;;17.60;99.90;;;;;;4961415;28;20077;-45
2022/08/19 02:11:31;;;;;;;11.60;10.40;;;17.50;99.90;;;;;;4961148;28;20506;-45
2022/08/19 02:13:57;;;;;;;13.05;10.98;;;17.50;99.90;;;;;;4961859;28;20035;-44
2022/08/19 02:16:23;;;;;;;11.70;10.32;;;17.60;99.90;;;;;;4962435;28;20039;-45
2022/08/19 02:18:50;;;;;;;13.00;10.98;;;17.50;99.90;;;;;;4960841;28;20031;-47
2022/08/19 02:21:17;;;;;;;12.90;11.52;;;17.50;99.90;;;;;;4961748;28;20113;-49
2022/08/19 02:23:43;;;;;;;12.05;10.75;;;17.40;99.90;;;;;;4943941;28;20042;-47
2022/08/19 02:26:09;;;;;;;13.27;11.88;;;17.40;99.90;;;;;;4944671;28;20039;-47
2022/08/19 02:28:36;;;;;;;12.85;11.55;;;17.40;99.90;;;;;;4960528;28;20393;-45
2022/08/19 02:31:02;;;;;;;13.55;11.30;;;17.30;99.90;;;;;;4962260;28;20054;-45
2022/08/19 02:33:28;;;;;;;13.73;11.95;;;17.30;99.90;;;;;;4960513;28;20045;-46
2022/08/19 02:35:54;;;;;;;13.52;12.13;;;17.30;99.90;;;;;;4962068;28;20946;-46
2022/08/19 02:38:25;;;;;;;14.20;11.48;;;17.40;99.90;;;;;;4961145;28;20274;-44
2022/08/19 02:40:58;;;;;;;12.32;11.02;;;17.40;99.90;;;;;;4961715;28;20438;-46
2022/08/19 02:43:25;;;;;;;13.43;12.02;;;17.40;99.90;;;;;;4961615;28;20037;-49
2022/08/19 02:45:52;;;;;;;14.00;12.50;;;17.30;99.90;;;;;;4942763;28;20030;-45
2022/08/19 02:48:20;;;;;;;13.45;10.95;;;17.30;99.90;;;;;;4946967;28;20121;-45
2022/08/19 02:50:48;;;;;;;14.07;12.07;;;17.30;99.90;;;;;;4965298;28;20038;-45
2022/08/19 02:53:13;;;;;;;12.40;10.98;;;17.30;99.90;;;;;;4963631;28;20114;-44
2022/08/19 02:55:45;;;;;;;13.68;12.23;;;17.20;99.90;;;;;;4948952;28;20046;-45
2022/08/19 02:58:11;;;;;;;13.80;11.25;;;17.10;99.90;;;;;;4964153;28;20058;-45
2022/08/19 03:00:45;;;;;;;12.35;10.93;;;17.20;99.90;;;;;;4964423;28;20506;-46
2022/08/19 03:03:11;;;;;;;13.38;11.93;;;17.20;99.90;;;;;;4964275;28;20031;-48
2022/08/19 03:05:37;;;;;;;14.20;11.23;;;17.20;99.90;;;;;;4965030;28;20446;-46
2022/08/19 03:08:04;;;;;;;13.07;11.70;;;17.10;99.90;;;;;;4963567;28;20497;-45
2022/08/19 03:10:29;;;;;;;13.55;11.55;;;17.20;99.90;;;;;;4964269;28;20047;-46
2022/08/19 03:12:55;;;;;;;11.75;10.50;;;17.10;99.90;;;;;;4964454;28;20072;-46
2022/08/19 03:15:20;;;;;;;12.77;11.00;;;17.00;99.90;;;;;;4963441;28;20039;-46
2022/08/19 03:17:46;;;;;;;13.32;10.77;;;17.10;99.90;;;;;;4947217;28;20062;-46
2022/08/19 03:20:12;;;;;;;12.40;11.10;;;17.00;99.90;;;;;;4947565;28;20109;-46
2022/08/19 03:22:37;;;;;;;14.70;11.57;;;17.10;99.90;;;;;;4963927;28;20399;-48
2022/08/19 03:25:04;;;;;;;13.77;12.30;;;17.00;99.90;;;;;;4964406;28;20414;-47
2022/08/19 03:27:29;;;;;;;13.68;11.90;;;17.00;99.90;;;;;;4965203;28;20460;-47
2022/08/19 03:29:55;;;;;;;14.25;12.65;;;17.10;99.90;;;;;;4964395;28;20117;-45
2022/08/19 03:32:21;;;;;;;17.20;12.82;;;17.00;99.90;;;;;;4963400;28;20045;-45
2022/08/19 03:34:47;;;;;;;14.43;12.80;;;17.00;99.90;;;;;;4964761;28;20173;-47
2022/08/19 03:37:13;;;;;;;13.55;12.10;;;17.00;99.90;;;;;;4964160;28;20035;-45
2022/08/19 03:39:40;;;;;;;14.15;12.68;;;17.00;99.90;;;;;;4964320;28;20038;-45
2022/08/19 03:42:06;;;;;;;15.60;13.80;;;16.90;99.90;;;;;;4963587;28;20487;-48
2022/08/19 03:44:33;;;;;;;14.25;12.80;;;16.90;99.90;;;;;;4963635;28;20050;-45
2022/08/19 03:46:59;;;;;;;14.80;12.50;;;16.80;99.90;;;;;;4963875;28;20034;-48
2022/08/19 03:49:28;;;;;;;13.25;11.80;;;16.80;99.90;;;;;;4963869;28;20046;-47
2022/08/19 03:51:56;;;;;;;14.95;13.32;;;16.80;99.90;;;;;;4963816;28;20094;-46
2022/08/19 03:54:23;;;;;;;14.15;12.65;;;16.80;99.90;;;;;;4962584;28;20078;-45
2022/08/19 03:56:51;;;;;;;15.02;13.27;;;16.80;99.90;;;;;;4962570;28;20027;-47
2022/08/19 03:59:24;;;;;;;14.68;13.10;;;16.80;99.90;;;;;;4963477;28;20483;-44
2022/08/19 04:01:51;;;;;;;16.17;13.13;;;16.90;99.90;;;;;;4964060;28;20221;-46
2022/08/19 04:04:17;;;;;;;13.98;12.45;;;16.80;99.90;;;;;;4963004;28;20059;-46
2022/08/19 04:06:43;;;;;;;14.43;12.93;;;16.80;99.90;;;;;;4963336;28;20039;-48
2022/08/19 04:09:10;;;;;;;15.38;13.80;;;16.80;99.90;;;;;;4963142;28;20039;-50
2022/08/19 04:11:42;;;;;;;15.68;14.02;;;16.80;99.90;;;;;;4964077;28;20039;-45
2022/08/19 04:14:12;;;;;;;16.48;13.82;;;16.70;99.90;;;;;;4963162;28;20070;-44
2022/08/19 04:16:37;;;;;;;18.42;15.00;;;16.90;99.90;;;;;;4961902;28;20067;-49
2022/08/19 04:19:04;;;;;;;17.63;14.35;;;16.60;99.90;;;;;;4963866;28;20363;-50
2022/08/19 04:21:30;;;;;;;16.58;14.25;;;16.70;99.90;;;;;;4962544;28;20027;-50
2022/08/19 04:23:57;;;;;;;15.00;12.93;;;16.60;99.90;;;;;;4962655;28;20063;-46
2022/08/19 04:26:26;;;;;;;15.45;13.52;;;16.60;99.90;;;;;;4963272;28;20031;-45
2022/08/19 04:28:54;;;;;;;15.93;14.18;;;16.50;99.90;;;;;;4963762;28;20137;-46
2022/08/19 04:31:22;;;;;;;15.13;13.20;;;16.60;99.90;;;;;;4962588;28;20031;-47
2022/08/19 04:33:48;;;;;;;17.25;14.13;;;16.50;99.90;;;;;;4962771;28;20137;-45
2022/08/19 04:36:23;;;;;;;15.35;13.75;;;16.60;99.90;;;;;;4962090;28;20066;-47
2022/08/19 04:38:50;;;;;;;15.85;14.18;;;16.50;99.90;;;;;;4962568;28;20058;-45
2022/08/19 04:44:01;;;;;;;;;;;16.40;99.90;;;;;;4963870;28;20418;-48
2022/08/19 04:46:30;;;;;;;15.20;13.48;;;16.50;99.90;;;;;;4963516;28;20364;-48
2022/08/19 04:48:56;;;;;;;18.30;13.13;;;16.40;99.90;;;;;;4963101;28;20037;-45
2022/08/19 04:51:23;;;;;;;18.33;15.25;;;16.40;99.90;;;;;;4963094;28;20038;-45
2022/08/19 04:53:48;;;;;;;17.05;15.27;;;16.40;99.90;;;;;;4961804;28;20042;-45
2022/08/19 04:56:17;;;;;;;18.55;13.70;;;16.40;99.90;;;;;;4962231;28;20487;-46
2022/08/19 04:58:44;;;;;;;19.27;15.65;;;16.40;99.90;;;;;;4962342;28;20110;-47
2022/08/19 05:01:29;;;;;;;21.85;15.05;;;16.40;99.90;;;;;;4963197;28;20035;-47
2022/08/19 05:03:56;;;;;;;18.33;15.70;;;16.40;99.90;;;;;;4961979;28;20034;-46
2022/08/19 05:06:23;;;;;;;18.80;15.52;;;16.40;99.90;;;;;;4962364;28;20046;-48
2022/08/19 05:08:49;;;;;;;18.00;15.98;;;16.40;99.90;;;;;;4962494;28;20471;-44
2022/08/19 05:11:28;;;;;;;19.13;13.70;;;16.50;99.90;;;;;;4962783;28;20538;-48
2022/08/19 05:13:55;;;;;;;18.58;15.55;;;16.40;99.90;;;;;;4962648;28;20070;-45
2022/08/19 05:16:22;;;;;;;20.88;14.02;;;16.40;99.90;;;;;;4961466;28;20034;-50
2022/08/19 05:24:19;;;;;;;18.40;13.70;;;16.50;99.90;;;;;;4961225;28;20073;-46
2022/08/19 05:26:47;;;;;;;20.70;16.92;;;16.40;99.90;;;;;;4962389;28;20061;-46
2022/08/19 05:29:15;;;;;;;18.90;16.10;;;16.50;99.90;;;;;;4958737;28;20057;-47
2022/08/19 05:31:41;;;;;;;20.25;16.17;;;16.50;99.90;;;;;;4962312;28;20034;-45
2022/08/19 05:34:07;;;;;;;19.02;17.02;;;16.60;99.90;;;;;;4962465;28;20039;-48
2022/08/19 05:36:39;;;;;;;20.30;16.88;;;16.60;99.90;;;;;;4962118;28;20456;-44
2022/08/19 05:39:06;;;;;;;21.30;17.98;;;16.60;99.90;;;;;;4963060;28;20031;-49
2022/08/19 05:41:31;;;;;;;21.00;17.60;;;16.70;99.90;;;;;;4961937;28;20034;-47
2022/08/19 05:43:58;;;;;;;21.02;17.35;;;16.80;99.90;;;;;;4960349;28;20487;-47
2022/08/19 05:46:24;;;;;;;21.63;17.98;;;16.90;99.90;;;;;;4961845;28;20244;-48
2022/08/19 05:48:50;;;;;;;19.52;17.23;;;17.00;99.90;;;;;;4961720;28;20039;-45
2022/08/19 05:51:16;;;;;;;19.35;16.83;;;17.00;99.90;;;;;;4961510;28;20035;-46
2022/08/19 05:53:45;;;;;;;22.05;18.83;;;16.90;99.90;;;;;;4962591;28;20031;-47
2022/08/19 05:56:15;;;;;;;20.98;18.10;;;16.90;99.90;;;;;;4962411;28;20398;-46
2022/08/19 05:58:42;;;;;;;22.15;19.45;;;17.00;99.90;;;;;;4961238;28;20049;-45
2022/08/19 06:01:14;;;;;;;22.08;18.67;;;16.90;99.90;;;;;;4962576;28;20035;-47
2022/08/19 06:03:39;;;;;;;22.60;19.17;;;17.00;99.90;;;;;;4962461;28;20406;-46
2022/08/19 06:06:07;;;;;;;24.98;19.88;;;17.10;99.90;;;;;;4961355;28;20117;-47
2022/08/19 06:08:36;;;;;;;21.90;19.30;;;17.20;99.90;;;;;;4960652;28;20441;-44
2022/08/19 06:11:25;;;;;;;22.05;19.10;;;17.10;99.90;;;;;;4962149;28;20038;-46
2022/08/19 06:13:53;;;;;;;25.63;20.80;;;17.10;99.90;;;;;;4962137;28;20113;-46
2022/08/19 06:16:21;;;;;;;23.92;20.77;;;17.30;99.90;;;;;;4943563;28;20031;-47
2022/08/19 06:18:50;;;;;;;23.10;20.67;;;17.30;99.90;;;;;;4943634;28;20039;-46
2022/08/19 06:21:15;;;;;;;23.58;20.20;;;17.30;99.90;;;;;;4962612;28;20038;-46
2022/08/19 06:23:41;;;;;;;23.30;20.85;;;17.40;99.90;;;;;;4964722;28;20047;-47
2022/08/19 06:26:11;;;;;;;24.55;20.63;;;17.40;99.90;;;;;;4965025;28;20046;-48
2022/08/19 06:28:46;;;;;;;22.88;20.48;;;17.60;99.90;;;;;;4964376;28;20046;-47
2022/08/19 06:31:17;;;;;;;23.08;19.60;;;17.60;99.90;;;;;;4964669;28;20042;-46
2022/08/19 06:33:44;;;;;;;22.10;19.63;;;17.60;99.90;;;;;;4964590;28;20110;-46
2022/08/19 06:36:18;;;;;;;23.23;20.73;;;17.60;99.90;;;;;;4965447;28;20364;-49
2022/08/19 06:38:44;;;;;;;23.17;20.42;;;17.70;99.90;;;;;;4964746;28;20471;-44
2022/08/19 06:41:09;;;;;;;24.67;21.25;;;17.70;99.90;;;;;;4965631;28;20035;-45
2022/08/19 06:43:35;;;;;;;24.38;19.85;;;17.80;99.90;;;;;;4964744;28;20506;-44
2022/08/19 06:46:03;;;;;;;24.35;20.55;;;17.90;99.90;;;;;;4965020;28;20039;-45
2022/08/19 06:48:29;;;;;;;24.95;21.08;;;18.00;99.90;;;;;;4963752;28;20039;-46
2022/08/19 06:50:55;;;;;;;24.90;21.08;;;18.00;99.90;;;;;;4964439;28;20054;-49
2022/08/19 06:53:21;;;;;;;23.50;20.40;;;18.00;99.90;;;;;;4963518;28;20035;-50
2022/08/19 06:55:47;;;;;;;22.60;19.73;;;18.00;99.90;;;;;;4965149;28;20166;-46
2022/08/19 06:58:13;;;;;;;25.85;21.35;;;18.20;99.90;;;;;;4964669;28;20125;-48
2022/08/19 07:00:39;;;;;;;23.92;20.98;;;18.20;99.90;;;;;;4965200;28;20043;-48
2022/08/19 07:03:05;;;;;;;23.08;19.70;;;18.40;99.90;;;;;;4963190;28;20031;-45
2022/08/19 07:05:31;;;;;;;22.85;20.02;;;18.40;99.90;;;;;;4964758;28;20069;-45
2022/08/19 07:07:57;;;;;;;24.08;20.08;;;18.50;99.90;;;;;;4964412;28;20785;-45
2022/08/19 07:10:23;;;;;;;24.38;20.70;;;18.50;99.90;;;;;;4963929;28;20057;-45
2022/08/19 07:12:49;;;;;;;25.35;21.17;;;18.60;99.90;;;;;;4961828;28;20043;-46
2022/08/19 07:15:16;;;;;;;23.38;20.83;;;18.70;99.90;;;;;;4960931;28;20049;-46
2022/08/19 07:17:43;;;;;;;24.80;20.67;;;18.70;99.90;;;;;;4963045;28;20322;-46
2022/08/19 07:20:10;;;;;;;24.13;21.50;;;18.90;99.90;;;;;;4963454;28;20042;-50
2022/08/19 07:22:40;;;;;;;24.73;21.50;;;19.00;99.90;;;;;;4964590;28;20034;-47
2022/08/19 07:25:08;;;;;;;24.83;20.85;;;19.10;99.90;;;;;;4963708;28;20073;-47
2022/08/19 07:27:34;;;;;;;24.30;21.08;;;19.40;99.90;;;;;;4964407;28;20046;-46
2022/08/19 07:30:00;;;;;;;23.25;20.50;;;19.50;99.90;;;;;;4963144;28;20055;-47
2022/08/19 07:32:26;;;;;;;24.48;21.35;;;19.60;99.90;;;;;;4963197;28;20113;-48
2022/08/19 07:34:52;;;;;;;25.85;22.67;;;19.60;99.90;;;;;;4964182;28;20073;-45
2022/08/19 07:37:18;;;;;;;24.63;20.58;;;19.70;99.90;;;;;;4964125;28;20047;-46
2022/08/19 07:39:43;;;;;;;26.25;21.70;;;19.80;99.90;;;;;;4963162;28;20103;-47
2022/08/19 07:42:10;;;;;;;25.42;22.48;;;19.90;99.90;;;;;;4964526;28;20031;-45
2022/08/19 07:44:36;;;;;;;23.83;21.33;;;20.00;99.90;;;;;;4964349;28;20042;-51
2022/08/19 07:47:03;;;;;;;25.27;21.80;;;20.20;99.90;;;;;;4964593;28;20042;-45
2022/08/19 07:49:29;;;;;;;24.88;22.27;;;20.10;99.90;;;;;;4944404;28;20062;-46
2022/08/19 07:52:00;;;;;;;26.05;22.95;;;20.20;99.90;;;;;;4963276;28;20035;-47
2022/08/19 07:54:30;;;;;;;28.02;25.02;;;20.20;99.90;;;;;;4944796;28;20078;-49
2022/08/19 07:56:56;;;;;;;28.20;24.20;;;20.30;99.90;;;;;;4962870;28;20117;-45
2022/08/19 07:59:23;;;;;;;27.38;24.55;;;20.30;99.90;;;;;;4963219;28;20043;-48
2022/08/19 08:01:49;;;;;;;29.65;26.17;;;20.40;99.90;;;;;;4962141;28;20027;-48
2022/08/19 08:09:46;;;;;;;28.17;25.17;;;20.60;99.90;;;;;;4961316;28;20053;-45
2022/08/19 08:12:15;;;;;;;28.40;25.00;;;20.80;99.90;;;;;;4961024;28;20053;-48
2022/08/19 08:14:48;;;;;;;29.23;25.92;;;20.90;99.90;;;;;;4960691;28;21234;-45
2022/08/19 08:17:15;;;;;;;30.73;25.92;;;20.90;99.90;;;;;;4959423;28;20034;-45
2022/08/19 08:19:42;;;;;;;28.63;25.58;;;21.00;99.90;;;;;;4960576;28;20118;-46
2022/08/19 08:23:22;;;;;;;32.90;25.95;;;21.10;99.90;;;;;;4959723;28;20545;-46
2022/08/19 08:24:58;;;;;;;23.65;21.15;;;21.10;99.90;;;;;;4957683;28;20065;-48
2022/08/19 08:27:24;;;;;;;26.90;24.02;;;21.20;99.90;;;;;;4960104;28;20042;-46
2022/08/19 08:29:50;;;;;;;27.67;24.67;;;21.20;99.90;;;;;;4960587;28;20043;-45
2022/08/19 08:32:16;;;;;;;26.75;23.13;;;21.20;99.90;;;;;;4940411;28;20064;-46
2022/08/19 08:34:42;;;;;;;26.40;22.80;;;21.30;99.90;;;;;;4960917;28;20058;-45
2022/08/19 08:37:08;;;;;;;27.23;21.92;;;21.50;99.90;;;;;;4943072;28;20034;-46
2022/08/19 08:39:34;;;;;;;26.20;22.25;;;21.50;99.90;;;;;;4960404;28;20118;-46
2022/08/19 08:42:31;;;;;;;26.30;21.40;;;21.70;99.90;;;;;;4946158;28;20034;-47
2022/08/19 08:44:58;;;;;;;24.55;21.38;;;21.80;99.90;;;;;;4961406;28;20081;-46
2022/08/19 08:47:26;;;;;;;25.42;22.70;;;21.70;99.90;;;;;;4960071;28;21207;-46
2022/08/19 08:50:01;;;;;;;26.60;23.15;;;21.80;99.90;;;;;;4943695;28;20129;-45
2022/08/19 08:52:45;;;;;;;28.33;21.67;;;21.90;99.90;;;;;;4958513;28;20185;-51
2022/08/19 08:55:19;;;;;;;23.02;20.30;;;21.90;99.90;;;;;;4959711;28;20035;-45
2022/08/19 08:57:48;;;;;;;;;;;22.10;99.90;;;;;;4959352;28;20030;-47
2022/08/19 09:00:24;;;;;;;24.58;21.70;;;22.10;99.90;;;;;;4961168;28;20054;-47
2022/08/19 09:02:50;;;;;;;25.88;22.40;;;22.20;99.90;;;;;;4958337;28;20039;-46
2022/08/19 09:05:20;;;;;;;23.00;20.23;;;22.40;99.90;;;;;;4961004;28;20402;-48
2022/08/19 09:07:58;;;;;;;20.60;17.92;;;22.50;99.90;;;;;;4960397;28;20043;-45
2022/08/19 09:10:44;;;;;;;19.15;17.13;;;22.80;99.90;;;;;;4944150;28;20047;-46
2022/08/19 09:13:19;;;;;;;21.50;16.30;;;22.90;99.90;;;;;;4962533;28;20069;-50
2022/08/19 09:15:56;;;;;;;22.25;18.27;;;23.10;99.90;;;;;;4958384;28;20047;-47
2022/08/19 09:18:22;;;;;;;20.75;18.15;;;23.20;99.90;;;;;;4958653;28;20062;-46
2022/08/19 09:20:47;;;;;;;21.05;17.98;;;23.30;99.90;;;;;;4960356;28;20418;-45
2022/08/19 09:23:13;;;;;;;19.38;17.20;;;23.30;99.90;;;;;;4960159;28;20066;-45
2022/08/19 09:25:39;;;;;;;21.38;18.50;;;23.50;99.90;;;;;;4961217;28;20062;-45
2022/08/19 09:28:06;;;;;;;24.17;18.75;;;23.20;99.90;;;;;;4958948;28;20118;-47
2022/08/19 09:30:40;;;;;;;23.13;17.77;;;23.40;99.90;;;;;;4956476;28;20119;-45
2022/08/19 09:33:06;;;;;;;20.67;17.20;;;23.50;99.90;;;;;;4958819;28;20499;-46
2022/08/19 09:35:33;;;;;;;23.13;18.42;;;23.70;99.90;;;;;;4958233;28;20431;-47
2022/08/19 09:37:59;;;;;;;22.77;18.73;;;23.90;99.90;;;;;;4943034;28;20105;-48
2022/08/19 09:40:28;;;;;;;24.02;19.65;;;23.90;99.90;;;;;;4962422;28;20087;-45
2022/08/19 09:42:54;;;;;;;21.38;18.42;;;23.90;99.90;;;;;;4959048;28;20031;-46
2022/08/19 09:45:21;;;;;;;26.38;21.80;;;24.10;99.90;;;;;;4959892;28;20118;-46
2022/08/19 09:47:50;;;;;;;21.85;19.55;;;23.90;99.90;;;;;;4959037;28;20090;-46
2022/08/19 09:50:17;;;;;;;21.73;19.35;;;24.10;99.90;;;;;;4959569;28;20964;-47
2022/08/19 09:52:44;;;;;;;24.85;20.83;;;24.30;99.90;;;;;;4959073;28;20030;-49
2022/08/19 09:55:10;;;;;;;22.95;19.65;;;24.30;99.90;;;;;;4959649;28;20134;-49
2022/08/19 09:57:36;;;;;;;26.83;20.25;;;24.40;99.90;;;;;;4965248;28;20390;-47
2022/08/19 10:00:06;;;;;;;22.90;20.50;;;24.60;99.90;;;;;;4962512;28;20031;-45
2022/08/19 10:02:32;;;;;;;26.42;22.38;;;24.40;99.90;;;;;;4963284;28;20066;-47
2022/08/19 10:07:42;;;;;;;25.95;23.15;;;24.30;99.90;;;;;;4960064;28;20041;-46
2022/08/19 10:10:09;;;;;;;26.02;21.08;;;24.30;99.90;;;;;;4962348;28;20065;-46
2022/08/19 10:12:35;;;;;;;23.35;19.45;;;24.40;99.90;;;;;;4963266;28;20050;-46
2022/08/19 10:15:01;;;;;;;23.13;19.52;;;24.20;99.90;;;;;;4964123;28;20062;-48
2022/08/19 10:17:27;;;;;;;20.80;18.25;;;24.10;99.90;;;;;;4946036;28;20043;-47
2022/08/19 10:19:53;;;;;;;24.30;19.25;;;24.00;99.90;;;;;;4964746;28;20043;-50
2022/08/19 10:22:19;;;;;;;20.02;16.58;;;24.30;99.90;;;;;;4962347;28;20026;-48
2022/08/19 10:24:47;;;;;;;22.30;18.40;;;24.50;99.90;;;;;;4963999;28;20565;-45
2022/08/19 10:27:13;;;;;;;21.10;18.45;;;24.50;99.90;;;;;;4964655;28;20035;-47
2022/08/19 10:29:39;;;;;;;20.90;18.63;;;24.40;99.90;;;;;;4962940;28;20121;-45
2022/08/19 10:32:08;;;;;;;20.10;16.23;;;24.40;99.90;;;;;;4963714;28;20066;-47
2022/08/19 10:34:35;;;;;;;20.25;16.65;;;24.50;99.90;;;;;;4960310;28;20058;-48
2022/08/19 10:37:02;;;;;;;24.00;20.50;;;24.80;99.90;;;;;;4961914;28;20434;-44
2022/08/19 10:39:35;;;;;;;22.88;18.52;;;24.70;99.90;;;;;;4961618;28;20034;-48
2022/08/19 10:42:10;;;;;;;23.13;19.87;;;24.70;99.90;;;;;;4962551;28;20054;-48
2022/08/19 10:44:36;;;;;;;24.30;19.83;;;24.60;99.90;;;;;;4962396;28;20031;-49
2022/08/19 10:47:02;;;;;;;24.45;20.55;;;24.90;99.90;;;;;;4962531;28;20047;-48
2022/08/19 10:49:28;;;;;;;22.02;18.25;;;24.80;99.90;;;;;;4962821;28;20031;-45
2022/08/19 10:57:28;;;;;;;24.70;21.08;;;25.00;99.90;;;;;;4963334;28;20039;-47
2022/08/19 10:59:55;;;;;;;23.30;19.88;;;24.90;99.90;;;;;;4962700;28;20034;-46
2022/08/19 11:02:21;;;;;;;22.55;19.45;;;25.20;99.90;;;;;;4962610;28;20053;-45
2022/08/19 11:04:49;;;;;;;27.75;23.58;;;25.20;99.90;;;;;;4960865;28;20043;-47
2022/08/19 11:07:15;;;;;;;30.25;24.92;;;25.20;99.90;;;;;;4962076;28;20078;-48
2022/08/19 11:09:42;;;;;;;26.85;22.40;;;25.40;99.90;;;;;;4944763;28;20507;-48
2022/08/19 11:12:09;;;;;;;25.65;19.60;;;25.30;99.90;;;;;;4961125;28;20098;-50
2022/08/19 11:14:35;;;;;;;19.33;16.30;;;25.40;99.90;;;;;;4961634;28;20079;-48
2022/08/19 11:17:03;;;;;;;20.83;15.55;;;25.50;99.90;;;;;;4944761;28;20043;-46
2022/08/19 11:19:29;;;;;;;24.55;18.90;;;25.40;99.90;;;;;;4961721;28;20720;-49
2022/08/19 11:21:55;;;;;;;23.23;18.48;;;25.70;99.90;;;;;;4959117;28;20133;-50
2022/08/19 11:24:24;;;;;;;25.40;20.15;;;25.70;99.90;;;;;;4959790;28;20181;-48
2022/08/19 11:26:52;;;;;;;25.08;20.30;;;25.50;99.90;;;;;;4960288;28;20541;-47
2022/08/19 11:29:21;;;;;;;22.23;18.45;;;25.50;99.90;;;;;;4959652;28;20054;-45
2022/08/19 11:31:49;;;;;;;20.25;15.95;;;25.60;99.90;;;;;;4962208;28;20038;-46
2022/08/19 11:34:20;;;;;;;22.02;17.40;;;25.80;99.90;;;;;;4958224;28;20054;-50
2022/08/19 11:36:52;;;;;;;21.08;17.77;;;26.00;99.90;;;;;;4963746;28;20039;-48
2022/08/19 11:39:21;;;;;;;22.38;16.25;;;26.00;99.90;;;;;;4947022;28;20109;-46
2022/08/19 11:41:47;;;;;;;22.35;14.77;;;26.10;99.90;;;;;;4962653;28;20038;-47
2022/08/19 11:44:14;;;;;;;19.73;17.50;;;26.50;99.90;;;;;;4962756;28;20488;-48
2022/08/19 11:46:41;;;;;;;17.33;14.88;;;26.40;99.90;;;;;;4959567;28;20038;-49
2022/08/19 11:49:09;;;;;;;18.90;14.30;;;26.50;99.90;;;;;;4945644;28;20038;-46
2022/08/19 11:51:35;;;;;;;22.63;17.88;;;26.70;99.90;;;;;;4964156;28;20046;-47
2022/08/19 11:54:01;;;;;;;20.52;15.35;;;27.00;99.90;;;;;;4962334;28;20069;-46
2022/08/19 11:56:28;;;;;;;20.67;16.95;;;26.80;99.90;;;;;;4963888;28;20463;-47
2022/08/19 11:58:54;;;;;;;23.20;16.23;;;26.60;99.90;;;;;;4963149;28;20062;-48
2022/08/19 12:01:22;;;;;;;20.13;14.80;;;26.50;99.90;;;;;;4962482;28;20502;-47
2022/08/19 12:03:50;;;;;;;18.05;13.63;;;26.30;99.90;;;;;;4960931;28;20038;-48
2022/08/19 12:06:19;;;;;;;15.80;11.93;;;26.60;99.90;;;;;;4963337;28;20043;-47
2022/08/19 12:08:47;;;;;;;18.42;12.60;;;26.70;99.90;;;;;;4960956;28;20117;-47
2022/08/19 12:11:14;;;;;;;16.75;13.68;;;26.80;99.90;;;;;;4957777;28;20541;-45
2022/08/19 12:13:40;;;;;;;17.90;12.57;;;27.00;99.90;;;;;;4955856;28;20038;-48
2022/08/19 12:16:12;;;;;;;16.33;12.10;;;27.20;99.90;;;;;;4956395;28;20054;-51
2022/08/19 12:18:43;;;;;;;14.07;10.70;;;27.30;99.90;;;;;;4956458;28;20047;-49
2022/08/19 12:21:10;;;;;;;15.25;12.05;;;27.10;99.90;;;;;;4957385;28;20071;-47
2022/08/19 12:23:37;;;;;;;17.60;12.90;;;27.20;99.90;;;;;;4951968;28;20046;-50
2022/08/19 12:26:03;;;;;;;16.05;11.10;;;27.40;99.90;;;;;;4955183;28;20574;-50
2022/08/19 12:28:30;;;;;;;11.32;8.35;;;27.40;99.90;;;;;;4958858;28;20092;-47
2022/08/19 12:30:56;;;;;;;16.15;12.32;;;27.90;99.90;;;;;;4941647;28;20074;-49
2022/08/19 12:33:25;;;;;;;15.35;12.50;;;27.60;99.90;;;;;;4963267;28;20027;-48
2022/08/19 12:35:51;;;;;;;15.68;12.15;;;27.50;99.90;;;;;;4951689;28;20043;-46
2022/08/19 12:38:17;;;;;;;11.52;8.90;;;27.60;99.90;;;;;;4952124;28;20031;-50
2022/08/19 12:40:47;;;;;;;14.32;9.43;;;27.80;99.90;;;;;;4952736;28;20031;-47
2022/08/19 12:43:13;;;;;;;15.13;10.20;;;27.80;99.70;;;;;;4952505;28;20031;-46
2022/08/19 12:45:39;;;;;;;15.63;10.80;;;28.00;99.90;;;;;;4953068;28;20051;-48
2022/08/19 12:48:05;;;;;;;19.38;12.52;;;28.10;99.90;;;;;;4952825;28;20043;-47
2022/08/19 12:50:31;;;;;;;17.90;12.38;;;27.80;99.90;;;;;;4952782;28;20051;-49
2022/08/19 12:52:57;;;;;;;16.30;13.05;;;28.10;99.90;;;;;;4952870;28;20085;-47
2022/08/19 12:55:24;;;;;;;16.08;12.70;;;28.20;99.90;;;;;;4934845;28;20047;-47